sensor_id;sensor_type;location;lat;lon;timestamp;P1;durP1;ratioP1;P2;durP2;ratioP2
13415;SDS011;6779;50.150;8.680;2023-08-06T00:00:01;5.20;;;4.70;;
13415;SDS011;6779;50.150;8.680;2023-08-06T00:02:27;5.40;;;4.60;;
13415;SDS011;6779;50.150;8.680;2023-08-06T00:04:53;6.17;;;5.27;;
13415;SDS011;6779;50.150;8.680;2023-08-06T00:07:18;6.17;;;4.90;;
13415;SDS011;6779;50.150;8.680;2023-08-06T00:09:43;5.30;;;4.83;;
13415;SDS011;6779;50.150;8.680;2023-08-06T00:12:09;6.20;;;4.90;;
13415;SDS011;6779;50.150;8.680;2023-08-06T00:14:34;6.10;;;5.20;;
13415;SDS011;6779;50.150;8.680;2023-08-06T00:16:59;5.37;;;4.87;;
13415;SDS011;6779;50.150;8.680;2023-08-06T00:19:25;6.03;;;5.30;;
13415;SDS011;6779;50.150;8.680;2023-08-06T00:21:50;5.80;;;5.20;;
13415;SDS011;6779;50.150;8.680;2023-08-06T00:24:15;6.53;;;5.70;;
13415;SDS011;6779;50.150;8.680;2023-08-06T00:26:41;7.00;;;6.30;;
13415;SDS011;6779;50.150;8.680;2023-08-06T00:29:06;7.17;;;6.00;;
13415;SDS011;6779;50.150;8.680;2023-08-06T00:31:31;6.60;;;5.97;;
13415;SDS011;6779;50.150;8.680;2023-08-06T00:33:56;6.40;;;5.80;;
13415;SDS011;6779;50.150;8.680;2023-08-06T00:36:22;6.40;;;5.80;;
13415;SDS011;6779;50.150;8.680;2023-08-06T00:38:47;7.53;;;6.77;;
13415;SDS011;6779;50.150;8.680;2023-08-06T00:41:12;6.83;;;6.10;;
13415;SDS011;6779;50.150;8.680;2023-08-06T00:43:38;6.73;;;5.70;;
13415;SDS011;6779;50.150;8.680;2023-08-06T00:46:03;9.00;;;6.07;;
13415;SDS011;6779;50.150;8.680;2023-08-06T00:48:29;7.43;;;6.00;;
13415;SDS011;6779;50.150;8.680;2023-08-06T00:50:54;6.50;;;5.40;;
13415;SDS011;6779;50.150;8.680;2023-08-06T00:53:20;7.73;;;5.90;;
13415;SDS011;6779;50.150;8.680;2023-08-06T00:55:45;8.17;;;6.00;;
13415;SDS011;6779;50.150;8.680;2023-08-06T00:58:11;6.23;;;5.43;;
13415;SDS011;6779;50.150;8.680;2023-08-06T01:00:37;6.50;;;5.50;;
13415;SDS011;6779;50.150;8.680;2023-08-06T01:03:02;5.60;;;4.93;;
13415;SDS011;6779;50.150;8.680;2023-08-06T01:05:28;7.20;;;5.30;;
13415;SDS011;6779;50.150;8.680;2023-08-06T01:08:12;6.40;;;5.03;;
13415;SDS011;6779;50.150;8.680;2023-08-06T01:11:01;6.63;;;5.07;;
13415;SDS011;6779;50.150;8.680;2023-08-06T01:13:35;7.30;;;5.47;;
13415;SDS011;6779;50.150;8.680;2023-08-06T01:16:05;5.70;;;4.87;;
13415;SDS011;6779;50.150;8.680;2023-08-06T01:18:31;6.00;;;5.40;;
13415;SDS011;6779;50.150;8.680;2023-08-06T01:20:57;5.57;;;5.07;;
13415;SDS011;6779;50.150;8.680;2023-08-06T01:23:22;8.03;;;4.80;;
13415;SDS011;6779;50.150;8.680;2023-08-06T01:25:49;5.10;;;4.60;;
13415;SDS011;6779;50.150;8.680;2023-08-06T01:28:48;8.40;;;4.60;;
13415;SDS011;6779;50.150;8.680;2023-08-06T01:31:21;8.37;;;4.40;;
13415;SDS011;6779;50.150;8.680;2023-08-06T01:33:47;8.33;;;4.73;;
13415;SDS011;6779;50.150;8.680;2023-08-06T01:36:15;10.60;;;4.80;;
13415;SDS011;6779;50.150;8.680;2023-08-06T01:38:41;4.93;;;4.23;;
13415;SDS011;6779;50.150;8.680;2023-08-06T01:41:07;5.40;;;4.87;;
13415;SDS011;6779;50.150;8.680;2023-08-06T01:43:32;4.90;;;4.50;;
13415;SDS011;6779;50.150;8.680;2023-08-06T01:45:57;5.97;;;4.27;;
13415;SDS011;6779;50.150;8.680;2023-08-06T01:48:22;5.27;;;4.77;;
13415;SDS011;6779;50.150;8.680;2023-08-06T01:50:48;5.73;;;4.50;;
13415;SDS011;6779;50.150;8.680;2023-08-06T01:53:13;5.23;;;4.73;;
13415;SDS011;6779;50.150;8.680;2023-08-06T01:55:38;4.77;;;4.27;;
13415;SDS011;6779;50.150;8.680;2023-08-06T01:58:04;6.90;;;4.47;;
13415;SDS011;6779;50.150;8.680;2023-08-06T02:00:29;5.37;;;4.67;;
13415;SDS011;6779;50.150;8.680;2023-08-06T02:02:54;5.97;;;4.60;;
13415;SDS011;6779;50.150;8.680;2023-08-06T02:05:20;5.37;;;4.73;;
13415;SDS011;6779;50.150;8.680;2023-08-06T02:07:45;8.10;;;4.57;;
13415;SDS011;6779;50.150;8.680;2023-08-06T02:10:10;5.17;;;4.50;;
13415;SDS011;6779;50.150;8.680;2023-08-06T02:12:35;5.97;;;4.70;;
13415;SDS011;6779;50.150;8.680;2023-08-06T02:15:01;6.47;;;4.50;;
13415;SDS011;6779;50.150;8.680;2023-08-06T02:17:26;5.80;;;4.63;;
13415;SDS011;6779;50.150;8.680;2023-08-06T02:19:51;4.40;;;4.00;;
13415;SDS011;6779;50.150;8.680;2023-08-06T02:22:17;7.83;;;4.37;;
13415;SDS011;6779;50.150;8.680;2023-08-06T02:24:42;6.50;;;4.37;;
13415;SDS011;6779;50.150;8.680;2023-08-06T02:27:07;5.17;;;4.23;;
13415;SDS011;6779;50.150;8.680;2023-08-06T02:29:33;5.30;;;3.90;;
13415;SDS011;6779;50.150;8.680;2023-08-06T02:31:58;5.80;;;4.67;;
13415;SDS011;6779;50.150;8.680;2023-08-06T02:34:24;4.77;;;4.37;;
13415;SDS011;6779;50.150;8.680;2023-08-06T02:36:49;4.83;;;3.93;;
13415;SDS011;6779;50.150;8.680;2023-08-06T02:39:14;6.57;;;4.10;;
13415;SDS011;6779;50.150;8.680;2023-08-06T02:41:40;4.23;;;3.80;;
13415;SDS011;6779;50.150;8.680;2023-08-06T02:44:05;4.10;;;3.70;;
13415;SDS011;6779;50.150;8.680;2023-08-06T02:46:30;4.17;;;3.50;;
13415;SDS011;6779;50.150;8.680;2023-08-06T02:48:56;5.90;;;3.73;;
13415;SDS011;6779;50.150;8.680;2023-08-06T02:51:21;9.37;;;4.43;;
13415;SDS011;6779;50.150;8.680;2023-08-06T02:53:47;5.03;;;3.53;;
13415;SDS011;6779;50.150;8.680;2023-08-06T02:56:13;4.00;;;3.60;;
13415;SDS011;6779;50.150;8.680;2023-08-06T02:58:38;7.80;;;4.37;;
13415;SDS011;6779;50.150;8.680;2023-08-06T03:01:04;5.70;;;3.67;;
13415;SDS011;6779;50.150;8.680;2023-08-06T03:03:31;3.90;;;3.50;;
13415;SDS011;6779;50.150;8.680;2023-08-06T03:05:57;7.13;;;3.93;;
13415;SDS011;6779;50.150;8.680;2023-08-06T03:08:23;6.27;;;3.87;;
13415;SDS011;6779;50.150;8.680;2023-08-06T03:10:48;6.10;;;3.77;;
13415;SDS011;6779;50.150;8.680;2023-08-06T03:13:14;4.33;;;3.70;;
13415;SDS011;6779;50.150;8.680;2023-08-06T03:15:40;5.43;;;3.73;;
13415;SDS011;6779;50.150;8.680;2023-08-06T03:18:05;4.17;;;3.20;;
13415;SDS011;6779;50.150;8.680;2023-08-06T03:20:31;3.77;;;3.30;;
13415;SDS011;6779;50.150;8.680;2023-08-06T03:22:57;4.17;;;3.27;;
13415;SDS011;6779;50.150;8.680;2023-08-06T03:25:22;3.97;;;3.13;;
13415;SDS011;6779;50.150;8.680;2023-08-06T03:27:48;3.97;;;3.37;;
13415;SDS011;6779;50.150;8.680;2023-08-06T03:30:13;8.07;;;4.30;;
13415;SDS011;6779;50.150;8.680;2023-08-06T03:32:38;6.10;;;3.77;;
13415;SDS011;6779;50.150;8.680;2023-08-06T03:35:04;7.50;;;3.63;;
13415;SDS011;6779;50.150;8.680;2023-08-06T03:37:29;6.23;;;4.00;;
13415;SDS011;6779;50.150;8.680;2023-08-06T03:39:54;4.67;;;3.30;;
13415;SDS011;6779;50.150;8.680;2023-08-06T03:42:20;4.77;;;3.13;;
13415;SDS011;6779;50.150;8.680;2023-08-06T03:44:45;5.70;;;3.50;;
13415;SDS011;6779;50.150;8.680;2023-08-06T03:47:10;3.73;;;3.33;;
13415;SDS011;6779;50.150;8.680;2023-08-06T03:49:36;6.67;;;3.80;;
13415;SDS011;6779;50.150;8.680;2023-08-06T03:52:01;8.57;;;3.87;;
13415;SDS011;6779;50.150;8.680;2023-08-06T03:54:26;4.30;;;3.43;;
13415;SDS011;6779;50.150;8.680;2023-08-06T03:56:52;4.97;;;3.60;;
13415;SDS011;6779;50.150;8.680;2023-08-06T03:59:17;4.13;;;3.13;;
13415;SDS011;6779;50.150;8.680;2023-08-06T04:01:42;4.33;;;3.37;;
13415;SDS011;6779;50.150;8.680;2023-08-06T04:04:07;4.37;;;3.00;;
13415;SDS011;6779;50.150;8.680;2023-08-06T04:06:33;4.80;;;3.40;;
13415;SDS011;6779;50.150;8.680;2023-08-06T04:08:58;5.70;;;3.37;;
13415;SDS011;6779;50.150;8.680;2023-08-06T04:11:23;5.43;;;3.13;;
13415;SDS011;6779;50.150;8.680;2023-08-06T04:13:49;4.60;;;3.83;;
13415;SDS011;6779;50.150;8.680;2023-08-06T04:16:14;4.47;;;3.20;;
13415;SDS011;6779;50.150;8.680;2023-08-06T04:18:40;5.60;;;3.30;;
13415;SDS011;6779;50.150;8.680;2023-08-06T04:21:05;4.27;;;3.23;;
13415;SDS011;6779;50.150;8.680;2023-08-06T04:23:31;3.53;;;2.73;;
13415;SDS011;6779;50.150;8.680;2023-08-06T04:25:56;7.57;;;3.20;;
13415;SDS011;6779;50.150;8.680;2023-08-06T04:28:22;3.30;;;2.87;;
13415;SDS011;6779;50.150;8.680;2023-08-06T04:30:47;5.00;;;3.13;;
13415;SDS011;6779;50.150;8.680;2023-08-06T04:33:13;6.17;;;2.93;;
13415;SDS011;6779;50.150;8.680;2023-08-06T04:35:38;3.73;;;3.03;;
13415;SDS011;6779;50.150;8.680;2023-08-06T04:38:03;4.70;;;2.63;;
13415;SDS011;6779;50.150;8.680;2023-08-06T04:40:29;5.80;;;2.63;;
13415;SDS011;6779;50.150;8.680;2023-08-06T04:42:54;5.17;;;3.00;;
13415;SDS011;6779;50.150;8.680;2023-08-06T04:45:19;4.60;;;3.20;;
13415;SDS011;6779;50.150;8.680;2023-08-06T04:47:44;3.73;;;2.83;;
13415;SDS011;6779;50.150;8.680;2023-08-06T04:50:10;6.57;;;2.93;;
13415;SDS011;6779;50.150;8.680;2023-08-06T04:52:35;4.67;;;2.87;;
13415;SDS011;6779;50.150;8.680;2023-08-06T04:55:01;5.47;;;2.70;;
13415;SDS011;6779;50.150;8.680;2023-08-06T04:57:26;6.03;;;2.80;;
13415;SDS011;6779;50.150;8.680;2023-08-06T04:59:51;4.80;;;2.87;;
13415;SDS011;6779;50.150;8.680;2023-08-06T05:02:17;5.67;;;2.70;;
13415;SDS011;6779;50.150;8.680;2023-08-06T05:04:42;4.37;;;2.67;;
13415;SDS011;6779;50.150;8.680;2023-08-06T05:07:07;4.97;;;2.70;;
13415;SDS011;6779;50.150;8.680;2023-08-06T05:09:33;4.10;;;2.60;;
13415;SDS011;6779;50.150;8.680;2023-08-06T05:12:00;5.83;;;2.67;;
13415;SDS011;6779;50.150;8.680;2023-08-06T05:14:26;3.23;;;2.40;;
13415;SDS011;6779;50.150;8.680;2023-08-06T05:16:51;4.13;;;2.50;;
13415;SDS011;6779;50.150;8.680;2023-08-06T05:19:16;4.10;;;2.60;;
13415;SDS011;6779;50.150;8.680;2023-08-06T05:21:42;2.90;;;2.20;;
13415;SDS011;6779;50.150;8.680;2023-08-06T05:24:07;3.77;;;2.17;;
13415;SDS011;6779;50.150;8.680;2023-08-06T05:26:32;5.07;;;2.13;;
13415;SDS011;6779;50.150;8.680;2023-08-06T05:28:58;4.47;;;2.50;;
13415;SDS011;6779;50.150;8.680;2023-08-06T05:31:23;4.00;;;2.60;;
13415;SDS011;6779;50.150;8.680;2023-08-06T05:33:48;3.57;;;2.50;;
13415;SDS011;6779;50.150;8.680;2023-08-06T05:36:13;2.57;;;2.10;;
13415;SDS011;6779;50.150;8.680;2023-08-06T05:38:39;3.90;;;2.10;;
13415;SDS011;6779;50.150;8.680;2023-08-06T05:41:04;2.90;;;2.30;;
13415;SDS011;6779;50.150;8.680;2023-08-06T05:43:29;2.20;;;1.80;;
13415;SDS011;6779;50.150;8.680;2023-08-06T05:45:55;2.87;;;2.30;;
13415;SDS011;6779;50.150;8.680;2023-08-06T05:48:21;3.87;;;2.00;;
13415;SDS011;6779;50.150;8.680;2023-08-06T05:50:47;3.83;;;2.30;;
13415;SDS011;6779;50.150;8.680;2023-08-06T05:53:12;3.43;;;2.10;;
13415;SDS011;6779;50.150;8.680;2023-08-06T05:55:38;2.30;;;1.93;;
13415;SDS011;6779;50.150;8.680;2023-08-06T05:58:04;3.20;;;2.20;;
13415;SDS011;6779;50.150;8.680;2023-08-06T06:00:29;3.57;;;2.13;;
13415;SDS011;6779;50.150;8.680;2023-08-06T06:02:54;1.93;;;1.60;;
13415;SDS011;6779;50.150;8.680;2023-08-06T06:05:20;3.10;;;2.03;;
13415;SDS011;6779;50.150;8.680;2023-08-06T06:07:45;2.97;;;2.03;;
13415;SDS011;6779;50.150;8.680;2023-08-06T06:10:10;2.13;;;1.83;;
13415;SDS011;6779;50.150;8.680;2023-08-06T06:12:37;3.77;;;2.00;;
13415;SDS011;6779;50.150;8.680;2023-08-06T06:15:03;5.83;;;2.33;;
13415;SDS011;6779;50.150;8.680;2023-08-06T06:17:29;4.47;;;2.20;;
13415;SDS011;6779;50.150;8.680;2023-08-06T06:19:54;2.57;;;1.93;;
13415;SDS011;6779;50.150;8.680;2023-08-06T06:22:20;2.03;;;1.70;;
13415;SDS011;6779;50.150;8.680;2023-08-06T06:24:45;2.53;;;1.53;;
13415;SDS011;6779;50.150;8.680;2023-08-06T06:27:10;3.03;;;1.70;;
13415;SDS011;6779;50.150;8.680;2023-08-06T06:29:36;2.47;;;1.70;;
13415;SDS011;6779;50.150;8.680;2023-08-06T06:32:01;2.00;;;1.50;;
13415;SDS011;6779;50.150;8.680;2023-08-06T06:34:26;3.63;;;1.60;;
13415;SDS011;6779;50.150;8.680;2023-08-06T06:36:52;4.80;;;1.40;;
13415;SDS011;6779;50.150;8.680;2023-08-06T06:39:17;1.97;;;1.20;;
13415;SDS011;6779;50.150;8.680;2023-08-06T06:41:42;2.73;;;1.30;;
13415;SDS011;6779;50.150;8.680;2023-08-06T06:44:09;1.57;;;1.10;;
13415;SDS011;6779;50.150;8.680;2023-08-06T06:46:34;1.63;;;1.43;;
13415;SDS011;6779;50.150;8.680;2023-08-06T06:48:59;1.33;;;1.10;;
13415;SDS011;6779;50.150;8.680;2023-08-06T06:51:25;2.00;;;1.13;;
13415;SDS011;6779;50.150;8.680;2023-08-06T06:53:50;1.93;;;1.23;;
13415;SDS011;6779;50.150;8.680;2023-08-06T06:56:15;2.90;;;1.30;;
13415;SDS011;6779;50.150;8.680;2023-08-06T06:58:40;3.07;;;1.30;;
13415;SDS011;6779;50.150;8.680;2023-08-06T07:01:06;3.40;;;1.50;;
13415;SDS011;6779;50.150;8.680;2023-08-06T07:03:32;5.00;;;1.60;;
13415;SDS011;6779;50.150;8.680;2023-08-06T07:05:57;1.40;;;1.27;;
13415;SDS011;6779;50.150;8.680;2023-08-06T07:08:24;2.13;;;1.60;;
13415;SDS011;6779;50.150;8.680;2023-08-06T07:10:49;1.67;;;1.20;;
13415;SDS011;6779;50.150;8.680;2023-08-06T07:13:14;1.53;;;1.43;;
13415;SDS011;6779;50.150;8.680;2023-08-06T07:15:41;1.73;;;1.43;;
13415;SDS011;6779;50.150;8.680;2023-08-06T07:18:06;1.80;;;1.40;;
13415;SDS011;6779;50.150;8.680;2023-08-06T07:20:32;2.33;;;1.20;;
13415;SDS011;6779;50.150;8.680;2023-08-06T07:22:59;1.93;;;1.40;;
13415;SDS011;6779;50.150;8.680;2023-08-06T07:25:24;3.40;;;1.27;;
13415;SDS011;6779;50.150;8.680;2023-08-06T07:27:49;1.67;;;1.10;;
13415;SDS011;6779;50.150;8.680;2023-08-06T07:30:14;2.70;;;1.53;;
13415;SDS011;6779;50.150;8.680;2023-08-06T07:32:40;2.10;;;1.00;;
13415;SDS011;6779;50.150;8.680;2023-08-06T07:35:05;1.63;;;0.87;;
13415;SDS011;6779;50.150;8.680;2023-08-06T07:37:33;1.43;;;1.30;;
13415;SDS011;6779;50.150;8.680;2023-08-06T07:39:58;2.93;;;1.30;;
13415;SDS011;6779;50.150;8.680;2023-08-06T07:42:23;1.50;;;1.33;;
13415;SDS011;6779;50.150;8.680;2023-08-06T07:44:52;1.50;;;1.10;;
13415;SDS011;6779;50.150;8.680;2023-08-06T07:47:18;1.90;;;1.10;;
13415;SDS011;6779;50.150;8.680;2023-08-06T07:49:44;3.27;;;1.30;;
13415;SDS011;6779;50.150;8.680;2023-08-06T07:52:09;1.07;;;1.00;;
13415;SDS011;6779;50.150;8.680;2023-08-06T07:54:34;1.53;;;1.03;;
13415;SDS011;6779;50.150;8.680;2023-08-06T07:57:00;2.20;;;0.97;;
13415;SDS011;6779;50.150;8.680;2023-08-06T07:59:25;1.03;;;0.97;;
13415;SDS011;6779;50.150;8.680;2023-08-06T08:01:50;2.10;;;1.13;;
13415;SDS011;6779;50.150;8.680;2023-08-06T08:04:16;1.30;;;1.10;;
13415;SDS011;6779;50.150;8.680;2023-08-06T08:06:41;1.57;;;1.10;;
13415;SDS011;6779;50.150;8.680;2023-08-06T08:09:06;2.33;;;1.30;;
13415;SDS011;6779;50.150;8.680;2023-08-06T08:11:32;1.23;;;1.07;;
13415;SDS011;6779;50.150;8.680;2023-08-06T08:13:57;2.20;;;1.33;;
13415;SDS011;6779;50.150;8.680;2023-08-06T08:16:22;1.90;;;1.00;;
13415;SDS011;6779;50.150;8.680;2023-08-06T08:18:48;3.63;;;1.10;;
13415;SDS011;6779;50.150;8.680;2023-08-06T08:21:13;3.90;;;1.60;;
13415;SDS011;6779;50.150;8.680;2023-08-06T08:23:38;1.60;;;1.17;;
13415;SDS011;6779;50.150;8.680;2023-08-06T08:26:04;1.93;;;1.40;;
13415;SDS011;6779;50.150;8.680;2023-08-06T08:28:29;1.37;;;1.20;;
13415;SDS011;6779;50.150;8.680;2023-08-06T08:30:55;2.47;;;1.20;;
13415;SDS011;6779;50.150;8.680;2023-08-06T08:33:21;1.80;;;1.30;;
13415;SDS011;6779;50.150;8.680;2023-08-06T08:35:47;2.30;;;1.20;;
13415;SDS011;6779;50.150;8.680;2023-08-06T08:38:12;1.60;;;1.30;;
13415;SDS011;6779;50.150;8.680;2023-08-06T08:40:39;1.70;;;1.60;;
13415;SDS011;6779;50.150;8.680;2023-08-06T08:43:10;2.03;;;1.30;;
13415;SDS011;6779;50.150;8.680;2023-08-06T08:45:36;1.50;;;1.07;;
13415;SDS011;6779;50.150;8.680;2023-08-06T08:48:04;1.30;;;1.20;;
13415;SDS011;6779;50.150;8.680;2023-08-06T08:50:29;1.63;;;1.30;;
13415;SDS011;6779;50.150;8.680;2023-08-06T08:52:55;1.30;;;1.20;;
13415;SDS011;6779;50.150;8.680;2023-08-06T08:55:21;2.20;;;1.23;;
13415;SDS011;6779;50.150;8.680;2023-08-06T08:57:46;1.50;;;1.40;;
13415;SDS011;6779;50.150;8.680;2023-08-06T09:00:12;1.97;;;1.50;;
13415;SDS011;6779;50.150;8.680;2023-08-06T09:02:39;2.93;;;1.33;;
13415;SDS011;6779;50.150;8.680;2023-08-06T09:05:05;3.33;;;1.43;;
13415;SDS011;6779;50.150;8.680;2023-08-06T09:07:42;1.50;;;1.37;;
13415;SDS011;6779;50.150;8.680;2023-08-06T09:10:11;1.27;;;1.17;;
13415;SDS011;6779;50.150;8.680;2023-08-06T09:12:38;1.30;;;1.20;;
13415;SDS011;6779;50.150;8.680;2023-08-06T09:15:04;2.33;;;1.30;;
13415;SDS011;6779;50.150;8.680;2023-08-06T09:17:29;1.77;;;1.33;;
13415;SDS011;6779;50.150;8.680;2023-08-06T09:19:55;1.83;;;1.20;;
13415;SDS011;6779;50.150;8.680;2023-08-06T09:22:20;1.77;;;1.47;;
13415;SDS011;6779;50.150;8.680;2023-08-06T09:24:45;2.23;;;1.20;;
13415;SDS011;6779;50.150;8.680;2023-08-06T09:27:11;1.40;;;1.30;;
13415;SDS011;6779;50.150;8.680;2023-08-06T09:29:44;2.57;;;1.33;;
13415;SDS011;6779;50.150;8.680;2023-08-06T09:32:11;1.30;;;1.20;;
13415;SDS011;6779;50.150;8.680;2023-08-06T09:34:42;1.50;;;1.40;;
13415;SDS011;6779;50.150;8.680;2023-08-06T09:37:08;0.90;;;0.90;;
13415;SDS011;6779;50.150;8.680;2023-08-06T09:39:34;1.63;;;1.00;;
13415;SDS011;6779;50.150;8.680;2023-08-06T09:42:00;1.30;;;1.20;;
13415;SDS011;6779;50.150;8.680;2023-08-06T09:44:27;2.50;;;1.00;;
13415;SDS011;6779;50.150;8.680;2023-08-06T09:46:54;1.10;;;1.00;;
13415;SDS011;6779;50.150;8.680;2023-08-06T09:49:24;1.93;;;1.00;;
13415;SDS011;6779;50.150;8.680;2023-08-06T09:51:51;1.63;;;1.17;;
13415;SDS011;6779;50.150;8.680;2023-08-06T09:54:18;1.10;;;1.00;;
13415;SDS011;6779;50.150;8.680;2023-08-06T09:56:44;0.70;;;0.50;;
13415;SDS011;6779;50.150;8.680;2023-08-06T09:59:09;0.60;;;0.60;;
13415;SDS011;6779;50.150;8.680;2023-08-06T10:01:36;0.80;;;0.80;;
13415;SDS011;6779;50.150;8.680;2023-08-06T10:04:02;0.43;;;0.43;;
13415;SDS011;6779;50.150;8.680;2023-08-06T10:06:28;1.63;;;0.50;;
13415;SDS011;6779;50.150;8.680;2023-08-06T10:08:54;0.43;;;0.43;;
13415;SDS011;6779;50.150;8.680;2023-08-06T10:11:20;1.47;;;0.80;;
13415;SDS011;6779;50.150;8.680;2023-08-06T10:13:47;1.00;;;0.80;;
13415;SDS011;6779;50.150;8.680;2023-08-06T10:16:13;0.90;;;0.67;;
13415;SDS011;6779;50.150;8.680;2023-08-06T10:18:39;1.03;;;0.70;;
13415;SDS011;6779;50.150;8.680;2023-08-06T10:21:07;1.53;;;1.10;;
13415;SDS011;6779;50.150;8.680;2023-08-06T10:23:33;0.87;;;0.70;;
13415;SDS011;6779;50.150;8.680;2023-08-06T10:26:00;1.37;;;0.70;;
13415;SDS011;6779;50.150;8.680;2023-08-06T10:28:33;0.60;;;0.50;;
13415;SDS011;6779;50.150;8.680;2023-08-06T10:31:02;0.87;;;0.60;;
13415;SDS011;6779;50.150;8.680;2023-08-06T10:33:45;4.70;;;0.63;;
13415;SDS011;6779;50.150;8.680;2023-08-06T10:36:11;0.70;;;0.70;;
13415;SDS011;6779;50.150;8.680;2023-08-06T10:38:47;1.77;;;0.70;;
13415;SDS011;6779;50.150;8.680;2023-08-06T10:41:18;0.97;;;0.87;;
13415;SDS011;6779;50.150;8.680;2023-08-06T10:43:47;1.77;;;0.77;;
13415;SDS011;6779;50.150;8.680;2023-08-06T10:49:07;0.70;;;0.60;;
13415;SDS011;6779;50.150;8.680;2023-08-06T10:51:33;0.60;;;0.60;;
13415;SDS011;6779;50.150;8.680;2023-08-06T10:53:58;0.60;;;0.60;;
13415;SDS011;6779;50.150;8.680;2023-08-06T10:56:25;0.67;;;0.57;;
13415;SDS011;6779;50.150;8.680;2023-08-06T10:58:53;0.67;;;0.67;;
13415;SDS011;6779;50.150;8.680;2023-08-06T11:01:20;0.67;;;0.60;;
13415;SDS011;6779;50.150;8.680;2023-08-06T11:03:47;0.60;;;0.50;;
13415;SDS011;6779;50.150;8.680;2023-08-06T11:06:17;0.47;;;0.47;;
13415;SDS011;6779;50.150;8.680;2023-08-06T11:08:48;0.63;;;0.53;;
13415;SDS011;6779;50.150;8.680;2023-08-06T11:11:15;0.40;;;0.40;;
13415;SDS011;6779;50.150;8.680;2023-08-06T11:13:49;0.60;;;0.50;;
13415;SDS011;6779;50.150;8.680;2023-08-06T11:16:15;0.50;;;0.50;;
13415;SDS011;6779;50.150;8.680;2023-08-06T11:18:42;0.50;;;0.50;;
13415;SDS011;6779;50.150;8.680;2023-08-06T11:21:07;0.50;;;0.40;;
13415;SDS011;6779;50.150;8.680;2023-08-06T11:23:33;0.53;;;0.50;;
13415;SDS011;6779;50.150;8.680;2023-08-06T11:25:59;0.50;;;0.50;;
13415;SDS011;6779;50.150;8.680;2023-08-06T11:28:24;0.50;;;0.50;;
13415;SDS011;6779;50.150;8.680;2023-08-06T11:30:50;0.73;;;0.60;;
13415;SDS011;6779;50.150;8.680;2023-08-06T11:33:25;0.97;;;0.40;;
13415;SDS011;6779;50.150;8.680;2023-08-06T11:35:51;0.63;;;0.50;;
13415;SDS011;6779;50.150;8.680;2023-08-06T11:38:17;0.70;;;0.50;;
13415;SDS011;6779;50.150;8.680;2023-08-06T11:40:44;0.40;;;0.40;;
13415;SDS011;6779;50.150;8.680;2023-08-06T11:43:10;0.50;;;0.50;;
13415;SDS011;6779;50.150;8.680;2023-08-06T11:45:35;0.77;;;0.40;;
13415;SDS011;6779;50.150;8.680;2023-08-06T11:48:01;1.60;;;0.60;;
13415;SDS011;6779;50.150;8.680;2023-08-06T11:50:27;0.80;;;0.50;;
13415;SDS011;6779;50.150;8.680;2023-08-06T11:52:53;1.60;;;0.70;;
13415;SDS011;6779;50.150;8.680;2023-08-06T11:55:22;2.40;;;0.97;;
13415;SDS011;6779;50.150;8.680;2023-08-06T11:57:48;0.70;;;0.63;;
13415;SDS011;6779;50.150;8.680;2023-08-06T12:00:14;1.07;;;0.60;;
13415;SDS011;6779;50.150;8.680;2023-08-06T12:02:39;1.40;;;0.57;;
13415;SDS011;6779;50.150;8.680;2023-08-06T12:07:36;0.53;;;0.50;;
13415;SDS011;6779;50.150;8.680;2023-08-06T12:10:03;0.40;;;0.40;;
13415;SDS011;6779;50.150;8.680;2023-08-06T12:12:28;1.80;;;0.63;;
13415;SDS011;6779;50.150;8.680;2023-08-06T12:14:54;1.10;;;0.70;;
13415;SDS011;6779;50.150;8.680;2023-08-06T12:17:19;2.63;;;0.70;;
13415;SDS011;6779;50.150;8.680;2023-08-06T12:19:45;1.57;;;0.73;;
13415;SDS011;6779;50.150;8.680;2023-08-06T12:22:12;0.87;;;0.73;;
13415;SDS011;6779;50.150;8.680;2023-08-06T12:24:38;0.93;;;0.70;;
13415;SDS011;6779;50.150;8.680;2023-08-06T12:27:04;0.80;;;0.80;;
13415;SDS011;6779;50.150;8.680;2023-08-06T12:29:30;1.57;;;0.83;;
13415;SDS011;6779;50.150;8.680;2023-08-06T12:31:56;3.03;;;0.80;;
13415;SDS011;6779;50.150;8.680;2023-08-06T12:34:21;1.00;;;0.90;;
13415;SDS011;6779;50.150;8.680;2023-08-06T12:36:46;0.90;;;0.73;;
13415;SDS011;6779;50.150;8.680;2023-08-06T12:39:12;0.80;;;0.80;;
13415;SDS011;6779;50.150;8.680;2023-08-06T12:41:38;1.67;;;0.90;;
13415;SDS011;6779;50.150;8.680;2023-08-06T12:44:03;1.37;;;0.90;;
13415;SDS011;6779;50.150;8.680;2023-08-06T12:46:28;1.57;;;0.90;;
13415;SDS011;6779;50.150;8.680;2023-08-06T12:48:54;0.97;;;0.83;;
13415;SDS011;6779;50.150;8.680;2023-08-06T12:51:19;1.60;;;0.80;;
13415;SDS011;6779;50.150;8.680;2023-08-06T12:53:44;0.90;;;0.70;;
13415;SDS011;6779;50.150;8.680;2023-08-06T12:56:09;1.73;;;0.80;;
13415;SDS011;6779;50.150;8.680;2023-08-06T12:58:35;1.13;;;1.03;;
13415;SDS011;6779;50.150;8.680;2023-08-06T13:01:00;2.00;;;0.80;;
13415;SDS011;6779;50.150;8.680;2023-08-06T13:03:25;0.90;;;0.90;;
13415;SDS011;6779;50.150;8.680;2023-08-06T13:05:51;0.90;;;0.80;;
13415;SDS011;6779;50.150;8.680;2023-08-06T13:08:17;1.50;;;0.80;;
13415;SDS011;6779;50.150;8.680;2023-08-06T13:10:42;2.17;;;0.97;;
13415;SDS011;6779;50.150;8.680;2023-08-06T13:13:07;0.93;;;0.70;;
13415;SDS011;6779;50.150;8.680;2023-08-06T13:15:35;1.50;;;0.70;;
13415;SDS011;6779;50.150;8.680;2023-08-06T13:18:00;0.80;;;0.80;;
13415;SDS011;6779;50.150;8.680;2023-08-06T13:20:25;0.90;;;0.90;;
13415;SDS011;6779;50.150;8.680;2023-08-06T13:22:50;1.50;;;0.70;;
13415;SDS011;6779;50.150;8.680;2023-08-06T13:25:18;0.90;;;0.70;;
13415;SDS011;6779;50.150;8.680;2023-08-06T13:27:43;1.13;;;0.90;;
13415;SDS011;6779;50.150;8.680;2023-08-06T13:30:10;1.03;;;0.70;;
13415;SDS011;6779;50.150;8.680;2023-08-06T13:32:36;2.20;;;0.87;;
13415;SDS011;6779;50.150;8.680;2023-08-06T13:35:02;2.00;;;0.83;;
13415;SDS011;6779;50.150;8.680;2023-08-06T13:37:29;1.43;;;0.80;;
13415;SDS011;6779;50.150;8.680;2023-08-06T13:39:54;2.37;;;0.70;;
13415;SDS011;6779;50.150;8.680;2023-08-06T13:42:19;1.23;;;0.70;;
13415;SDS011;6779;50.150;8.680;2023-08-06T13:44:45;1.70;;;0.70;;
13415;SDS011;6779;50.150;8.680;2023-08-06T13:47:10;1.67;;;0.80;;
13415;SDS011;6779;50.150;8.680;2023-08-06T13:49:35;1.30;;;0.90;;
13415;SDS011;6779;50.150;8.680;2023-08-06T13:52:01;1.63;;;0.80;;
13415;SDS011;6779;50.150;8.680;2023-08-06T13:54:26;1.70;;;1.20;;
13415;SDS011;6779;50.150;8.680;2023-08-06T13:56:51;0.80;;;0.80;;
13415;SDS011;6779;50.150;8.680;2023-08-06T13:59:18;1.70;;;0.80;;
13415;SDS011;6779;50.150;8.680;2023-08-06T14:01:44;1.33;;;0.63;;
13415;SDS011;6779;50.150;8.680;2023-08-06T14:04:10;2.43;;;0.90;;
13415;SDS011;6779;50.150;8.680;2023-08-06T14:06:35;0.97;;;0.87;;
13415;SDS011;6779;50.150;8.680;2023-08-06T14:09:00;1.37;;;1.10;;
13415;SDS011;6779;50.150;8.680;2023-08-06T14:11:26;2.13;;;1.10;;
13415;SDS011;6779;50.150;8.680;2023-08-06T14:13:51;1.30;;;1.20;;
13415;SDS011;6779;50.150;8.680;2023-08-06T14:16:17;1.93;;;0.67;;
13415;SDS011;6779;50.150;8.680;2023-08-06T14:18:42;0.97;;;0.87;;
13415;SDS011;6779;50.150;8.680;2023-08-06T14:21:07;1.83;;;0.80;;
13415;SDS011;6779;50.150;8.680;2023-08-06T14:23:33;0.83;;;0.80;;
13415;SDS011;6779;50.150;8.680;2023-08-06T14:25:58;1.23;;;0.80;;
13415;SDS011;6779;50.150;8.680;2023-08-06T14:28:23;0.70;;;0.70;;
13415;SDS011;6779;50.150;8.680;2023-08-06T14:30:49;1.00;;;0.70;;
13415;SDS011;6779;50.150;8.680;2023-08-06T14:33:14;2.67;;;1.00;;
13415;SDS011;6779;50.150;8.680;2023-08-06T14:35:39;0.93;;;0.90;;
13415;SDS011;6779;50.150;8.680;2023-08-06T14:38:05;2.13;;;0.93;;
13415;SDS011;6779;50.150;8.680;2023-08-06T14:40:30;0.70;;;0.70;;
13415;SDS011;6779;50.150;8.680;2023-08-06T14:43:00;1.37;;;0.80;;
13415;SDS011;6779;50.150;8.680;2023-08-06T14:45:26;2.10;;;0.70;;
13415;SDS011;6779;50.150;8.680;2023-08-06T14:47:51;2.77;;;0.90;;
13415;SDS011;6779;50.150;8.680;2023-08-06T14:50:17;1.03;;;0.80;;
13415;SDS011;6779;50.150;8.680;2023-08-06T14:52:42;0.87;;;0.70;;
13415;SDS011;6779;50.150;8.680;2023-08-06T14:55:07;1.43;;;0.77;;
13415;SDS011;6779;50.150;8.680;2023-08-06T14:57:33;1.43;;;0.90;;